Benton Ridge, Ohio
Current Conditions -  °F | °C
As of 3:53 AM on Wednesday 22 Oct 2014 (Local Time) from KFDY Reporting Station
Overcast Overcast  
Wind Chill: 39°   Ceiling: 1500
Heat Index: 44°   Visibility: 10mi
Dew Point: 38°   Wind: 9mph
Humidity: 79%   Direction: 330°NNW
Pressure: 30.2"   Gusts: NA
Location:  41°N, 83.79°W
Report Text: KFDY 220753Z AUTO 33008KT 10SM OVC015 07/03 A3020 RMK AO2 SLP225 T00670033
Loading
Personal Weather Stations






























Interactive Weather Map New forecast layout! Learn more

10-Day Weather Forecast

Advertisements
Track Severe Weather on mobile